createdAt,value
2023-02-19T00:01:26.914Z,1.65
2023-02-19T00:04:02.794Z,1.58
2023-02-19T00:06:32.141Z,1.02
2023-02-19T00:08:58.922Z,1.10
2023-02-19T00:11:29.618Z,0.95
2023-02-19T00:13:57.906Z,0.88
2023-02-19T00:16:28.278Z,1.02
2023-02-19T00:18:56.643Z,2.75
2023-02-19T00:21:24.106Z,1.30
2023-02-19T00:23:52.843Z,1.20
2023-02-19T00:26:19.963Z,2.35
2023-02-19T00:28:47.892Z,1.15
2023-02-19T00:31:20.606Z,1.30
2023-02-19T00:33:48.662Z,0.98
2023-02-19T00:36:16.038Z,1.17
2023-02-19T00:38:43.841Z,1.25
2023-02-19T00:41:21.451Z,1.75
2023-02-19T00:43:59.172Z,1.38
2023-02-19T00:46:27.850Z,0.75
2023-02-19T00:48:55.080Z,0.60
2023-02-19T00:51:23.297Z,0.95
2023-02-19T00:53:49.861Z,1.95
2023-02-19T00:56:16.396Z,1.35
2023-02-19T00:58:43.248Z,3.55
2023-02-19T01:01:11.378Z,2.67
2023-02-19T01:03:39.137Z,0.80
2023-02-19T01:06:07.286Z,1.30
2023-02-19T01:08:34.327Z,1.10
2023-02-19T01:11:02.632Z,1.73
2023-02-19T01:13:29.559Z,2.30
2023-02-19T01:16:06.762Z,2.50
2023-02-19T01:18:34.829Z,3.00
2023-02-19T01:21:07.243Z,2.22
2023-02-19T01:23:34.430Z,3.92
2023-02-19T01:26:05.018Z,2.70
2023-02-19T01:28:32.060Z,3.03
2023-02-19T01:31:07.037Z,4.57
2023-02-19T01:33:34.844Z,3.70
2023-02-19T01:36:04.376Z,4.53
2023-02-19T01:38:30.768Z,5.53
2023-02-19T01:40:59.681Z,4.80
2023-02-19T01:43:26.821Z,3.50
2023-02-19T01:45:53.999Z,4.63
2023-02-19T01:48:25.593Z,4.68
2023-02-19T01:50:59.626Z,4.88
2023-02-19T01:53:29.989Z,3.70
2023-02-19T01:55:59.806Z,4.18
2023-02-19T01:58:31.283Z,5.47
2023-02-19T02:00:59.242Z,5.38
2023-02-19T02:03:25.790Z,6.78
2023-02-19T02:06:33.042Z,4.68
2023-02-19T02:09:19.252Z,5.47
2023-02-19T02:11:50.209Z,4.65
2023-02-19T02:14:19.631Z,3.88
2023-02-19T02:17:20.183Z,5.45
2023-02-19T02:20:12.116Z,6.15
2023-02-19T02:22:52.290Z,4.32
2023-02-19T02:25:49.670Z,10.77
2023-02-19T02:28:34.833Z,3.80
2023-02-19T02:31:10.052Z,1.75
2023-02-19T02:34:07.548Z,2.22
2023-02-19T02:36:38.298Z,3.65
2023-02-19T02:39:10.178Z,2.72
2023-02-19T02:42:11.773Z,2.20
2023-02-19T02:44:40.068Z,2.55
2023-02-19T02:47:29.684Z,2.70
2023-02-19T02:50:08.140Z,4.30
2023-02-19T02:52:57.805Z,2.20
2023-02-19T02:55:25.513Z,1.88
2023-02-19T02:57:52.514Z,5.78
2023-02-19T03:00:19.115Z,3.58
2023-02-19T03:02:45.662Z,4.20
2023-02-19T03:05:44.169Z,3.92
2023-02-19T03:08:18.933Z,3.13
2023-02-19T03:11:21.083Z,3.78
2023-02-19T03:14:08.193Z,3.20
2023-02-19T03:16:56.225Z,2.97
2023-02-19T03:19:25.973Z,3.25
2023-02-19T03:22:15.743Z,3.58
2023-02-19T03:25:08.053Z,4.45
2023-02-19T03:27:36.112Z,4.78
2023-02-19T03:30:08.799Z,8.18
2023-02-19T03:33:13.861Z,5.90
2023-02-19T03:35:49.038Z,8.27
2023-02-19T03:41:10.287Z,5.40
2023-02-19T03:43:53.765Z,6.32
2023-02-19T03:46:38.905Z,11.30
2023-02-19T03:49:28.949Z,5.75
2023-02-19T03:52:33.674Z,6.68
2023-02-19T03:55:06.073Z,15.10
2023-02-19T03:57:51.226Z,12.15
2023-02-19T04:00:27.517Z,15.43
2023-02-19T04:03:00.649Z,8.93
2023-02-19T04:05:32.398Z,10.77
2023-02-19T04:08:06.248Z,9.85
2023-02-19T04:10:33.943Z,13.52
2023-02-19T04:13:06.782Z,13.30
2023-02-19T04:15:36.181Z,11.38
2023-02-19T04:18:07.674Z,14.70
2023-02-19T04:20:42.298Z,13.98
2023-02-19T04:23:09.297Z,13.07
2023-02-19T04:25:38.985Z,14.38
2023-02-19T04:28:05.906Z,13.45
2023-02-19T04:30:32.490Z,14.15
2023-02-19T04:32:59.097Z,15.70
2023-02-19T04:35:25.587Z,14.45
2023-02-19T04:37:52.661Z,16.42
2023-02-19T04:40:19.547Z,17.02
2023-02-19T04:42:45.958Z,15.73
2023-02-19T04:45:12.474Z,13.82
2023-02-19T04:47:38.899Z,19.10
2023-02-19T04:50:05.771Z,20.08
2023-02-19T04:52:33.312Z,19.20
2023-02-19T04:54:59.727Z,20.02
2023-02-19T04:57:26.701Z,22.00
2023-02-19T04:59:53.186Z,15.32
2023-02-19T05:02:19.989Z,22.98
2023-02-19T05:04:46.468Z,18.38
2023-02-19T05:07:13.041Z,20.55
2023-02-19T05:09:39.445Z,15.90
2023-02-19T05:12:06.581Z,13.52
2023-02-19T05:14:32.955Z,18.58
2023-02-19T05:16:59.889Z,15.43
2023-02-19T05:19:26.263Z,19.33
2023-02-19T05:21:52.755Z,16.88
2023-02-19T05:24:19.269Z,16.70
2023-02-19T05:26:46.320Z,14.60
2023-02-19T05:29:12.697Z,17.10
2023-02-19T05:31:39.627Z,17.38
2023-02-19T05:34:06.297Z,14.77
2023-02-19T05:36:32.726Z,16.48
2023-02-19T05:38:59.690Z,16.83
2023-02-19T05:41:29.389Z,17.73
2023-02-19T05:43:57.249Z,20.80
2023-02-19T05:46:26.582Z,20.98
2023-02-19T05:48:54.192Z,19.58
2023-02-19T05:51:23.251Z,21.50
2023-02-19T05:53:50.703Z,23.02
2023-02-19T05:56:41.492Z,25.90
2023-02-19T05:59:15.931Z,19.88
2023-02-19T06:01:42.768Z,20.98
2023-02-19T06:04:11.323Z,23.63
2023-02-19T06:06:38.605Z,19.90
2023-02-19T06:09:06.750Z,16.00
2023-02-19T06:11:33.274Z,20.25
2023-02-19T06:13:59.930Z,17.05
2023-02-19T06:16:26.870Z,22.63
2023-02-19T06:18:53.420Z,18.05
2023-02-19T06:21:20.453Z,21.48
2023-02-19T06:23:47.192Z,25.83
2023-02-19T06:26:22.759Z,28.08
2023-02-19T06:28:50.946Z,21.25
2023-02-19T06:31:19.262Z,21.10
2023-02-19T06:33:46.630Z,23.08
2023-02-19T06:36:16.432Z,20.23
2023-02-19T06:38:43.982Z,25.15
2023-02-19T06:41:12.351Z,21.90
2023-02-19T06:43:40.664Z,19.20
2023-02-19T06:46:07.823Z,28.38
2023-02-19T06:48:35.711Z,20.40
2023-02-19T06:51:02.868Z,21.42
2023-02-19T06:53:29.707Z,19.58
2023-02-19T06:56:05.388Z,23.92
2023-02-19T06:58:33.394Z,20.23
2023-02-19T07:01:00.087Z,23.60
2023-02-19T07:03:26.736Z,24.02
2023-02-19T07:05:53.541Z,25.88
2023-02-19T07:08:20.241Z,24.17
2023-02-19T07:10:55.433Z,24.67
2023-02-19T07:15:49.965Z,26.50
2023-02-19T07:18:17.531Z,24.35
2023-02-19T07:20:44.091Z,30.38
2023-02-19T07:23:10.520Z,25.02
2023-02-19T07:25:37.979Z,26.83
2023-02-19T07:28:04.741Z,26.92
2023-02-19T07:30:31.342Z,22.38
2023-02-19T07:32:57.939Z,27.23
2023-02-19T07:35:24.429Z,19.00
2023-02-19T07:37:51.052Z,31.50
2023-02-19T07:40:17.690Z,23.88
2023-02-19T07:42:44.221Z,19.55
2023-02-19T07:45:10.635Z,22.50
2023-02-19T07:47:37.265Z,30.65
2023-02-19T07:50:04.120Z,23.23
2023-02-19T07:52:30.737Z,21.00
2023-02-19T07:54:57.133Z,23.73
2023-02-19T07:57:23.543Z,27.02
2023-02-19T07:59:50.058Z,19.27
2023-02-19T08:02:37.211Z,24.52
2023-02-19T08:05:05.760Z,20.23
2023-02-19T08:07:34.241Z,24.83
2023-02-19T08:10:19.670Z,24.15
2023-02-19T08:13:04.709Z,23.73
2023-02-19T08:15:32.952Z,21.30
2023-02-19T08:17:59.501Z,17.48
2023-02-19T08:20:25.987Z,19.95
2023-02-19T08:22:52.969Z,20.95
2023-02-19T08:25:19.388Z,26.80
2023-02-19T08:27:46.039Z,24.65
2023-02-19T08:30:13.325Z,22.98
2023-02-19T08:32:39.735Z,22.90
2023-02-19T08:35:06.311Z,27.80
2023-02-19T08:37:32.843Z,19.98
2023-02-19T08:39:59.255Z,22.58
2023-02-19T08:42:30.787Z,28.75
2023-02-19T08:44:57.245Z,34.70
2023-02-19T08:47:23.952Z,27.90
2023-02-19T08:49:50.336Z,28.27
2023-02-19T08:52:16.834Z,25.38
2023-02-19T08:54:43.245Z,28.17
2023-02-19T08:57:10.109Z,26.67
2023-02-19T08:59:36.573Z,30.63
2023-02-19T09:02:03.555Z,31.90
2023-02-19T09:04:30.185Z,24.90
2023-02-19T09:06:58.044Z,25.52
2023-02-19T09:09:24.467Z,28.80
2023-02-19T09:11:51.114Z,27.20
2023-02-19T09:14:17.618Z,22.75
2023-02-19T09:16:44.046Z,27.40
2023-02-19T09:19:10.967Z,24.23
2023-02-19T09:21:37.365Z,23.60
2023-02-19T09:24:04.449Z,25.42
2023-02-19T09:26:30.869Z,33.78
2023-02-19T09:28:57.288Z,32.95
2023-02-19T09:31:24.563Z,21.02
2023-02-19T09:33:51.284Z,26.55
2023-02-19T09:36:18.730Z,29.25
2023-02-19T09:38:45.569Z,25.80
2023-02-19T09:41:23.619Z,22.60
2023-02-19T09:43:50.525Z,31.30
2023-02-19T09:46:26.185Z,27.90
2023-02-19T09:48:55.810Z,21.27
2023-02-19T09:51:25.165Z,22.92
2023-02-19T09:53:53.920Z,26.73
2023-02-19T09:56:20.370Z,27.73
2023-02-19T09:58:50.774Z,21.80
2023-02-19T10:01:18.321Z,26.48
2023-02-19T10:03:48.298Z,23.08
2023-02-19T10:06:27.100Z,22.00
2023-02-19T10:08:59.993Z,24.52
2023-02-19T10:11:28.378Z,28.38
2023-02-19T10:14:02.132Z,18.35
2023-02-19T10:16:29.522Z,16.10
2023-02-19T10:18:56.597Z,23.73
2023-02-19T10:21:26.188Z,20.50
2023-02-19T10:23:57.317Z,21.38
2023-02-19T10:26:24.583Z,19.05
2023-02-19T10:28:51.165Z,20.48
2023-02-19T10:31:21.682Z,19.27
2023-02-19T10:33:54.054Z,25.08
2023-02-19T10:36:32.822Z,15.73
2023-02-19T10:39:01.804Z,24.58
2023-02-19T10:41:29.112Z,15.50
2023-02-19T10:44:16.246Z,20.55
2023-02-19T10:46:48.204Z,13.88
2023-02-19T10:49:40.100Z,17.38
2023-02-19T10:52:23.033Z,18.02
2023-02-19T10:55:09.472Z,19.70
2023-02-19T10:57:37.697Z,30.33
2023-02-19T11:00:16.630Z,17.65
2023-02-19T11:02:44.837Z,20.23
2023-02-19T11:05:17.297Z,17.75
2023-02-19T11:07:56.633Z,25.75
2023-02-19T11:10:25.990Z,16.30
2023-02-19T11:12:55.820Z,22.58
2023-02-19T11:15:27.547Z,22.25
2023-02-19T11:17:56.470Z,20.27
2023-02-19T11:20:23.764Z,21.17
2023-02-19T11:23:04.878Z,24.83
2023-02-19T11:25:31.488Z,23.27
2023-02-19T11:27:58.235Z,23.83
2023-02-19T11:30:30.505Z,22.30
2023-02-19T11:33:16.007Z,20.23
2023-02-19T11:35:44.192Z,18.98
2023-02-19T11:38:13.500Z,22.00
2023-02-19T11:41:04.832Z,15.10
2023-02-19T11:43:34.263Z,17.33
2023-02-19T11:46:17.780Z,20.08
2023-02-19T11:49:06.101Z,17.02
2023-02-19T11:51:52.319Z,18.98
2023-02-19T11:54:38.886Z,17.80
2023-02-19T11:57:15.470Z,18.77
2023-02-19T11:59:55.723Z,24.75
2023-02-19T12:02:58.385Z,24.52
2023-02-19T12:05:40.090Z,20.60
2023-02-19T12:08:38.747Z,19.55
2023-02-19T12:11:25.158Z,18.63
2023-02-19T12:14:13.599Z,15.23
2023-02-19T12:17:17.204Z,20.55
2023-02-19T12:20:19.330Z,15.63
2023-02-19T12:22:51.774Z,18.90
2023-02-19T12:25:23.789Z,21.75
2023-02-19T12:28:07.237Z,20.15
2023-02-19T12:31:03.162Z,18.30
2023-02-19T12:36:20.408Z,19.37
2023-02-19T12:39:02.836Z,16.42
2023-02-19T12:41:57.110Z,15.07
2023-02-19T12:44:48.400Z,14.90
2023-02-19T12:47:34.019Z,17.58
2023-02-19T12:50:12.563Z,14.15
2023-02-19T12:52:43.056Z,13.93
2023-02-19T12:55:28.731Z,16.25
2023-02-19T12:57:59.082Z,10.85
2023-02-19T13:00:33.602Z,14.63
2023-02-19T13:03:12.242Z,8.80
2023-02-19T13:05:46.779Z,10.57
2023-02-19T13:08:23.308Z,18.88
2023-02-19T13:10:55.413Z,13.43
2023-02-19T13:13:31.807Z,11.45
2023-02-19T13:16:04.020Z,13.55
2023-02-19T13:18:38.201Z,13.27
2023-02-19T13:21:06.141Z,11.02
2023-02-19T13:23:56.931Z,11.32
2023-02-19T13:26:33.043Z,10.70
2023-02-19T13:29:27.656Z,10.63
2023-02-19T13:32:21.891Z,10.02
2023-02-19T13:35:12.740Z,8.90
2023-02-19T13:37:39.773Z,7.80
2023-02-19T13:40:26.703Z,10.68
2023-02-19T13:42:57.014Z,6.80
2023-02-19T13:45:31.791Z,11.38
2023-02-19T13:48:00.740Z,12.27
2023-02-19T13:50:28.994Z,8.85
2023-02-19T13:52:57.244Z,9.68
2023-02-19T13:55:51.919Z,10.07
2023-02-19T13:58:33.782Z,11.32
2023-02-19T14:01:02.109Z,10.63
2023-02-19T14:03:30.488Z,10.27
2023-02-19T14:05:59.124Z,9.55
2023-02-19T14:08:52.573Z,10.55
2023-02-19T14:11:39.099Z,8.75
2023-02-19T14:14:28.329Z,10.77
2023-02-19T14:17:09.937Z,12.05
2023-02-19T14:19:42.679Z,12.75
2023-02-19T14:22:45.020Z,10.30
2023-02-19T14:25:29.234Z,10.70
2023-02-19T14:28:17.184Z,12.02
2023-02-19T14:31:07.034Z,11.82
2023-02-19T14:33:36.169Z,10.50
2023-02-19T14:36:24.331Z,13.38
2023-02-19T14:38:55.002Z,13.30
2023-02-19T14:41:23.351Z,11.75
2023-02-19T14:43:54.089Z,9.23
2023-02-19T14:46:34.132Z,11.75
2023-02-19T14:49:11.374Z,15.27
2023-02-19T14:51:45.231Z,12.60
2023-02-19T14:54:20.887Z,13.65
2023-02-19T14:56:51.753Z,9.63
2023-02-19T14:59:27.163Z,14.13
2023-02-19T15:01:55.624Z,10.80
2023-02-19T15:04:25.318Z,8.98
2023-02-19T15:06:56.536Z,9.52
2023-02-19T15:09:32.927Z,14.68
2023-02-19T15:12:00.582Z,10.80
2023-02-19T15:14:30.579Z,13.30
2023-02-19T15:17:02.382Z,15.18
2023-02-19T15:19:35.005Z,17.40
2023-02-19T15:22:02.530Z,13.18
2023-02-19T15:24:29.797Z,12.90
2023-02-19T15:26:56.445Z,14.07
2023-02-19T15:29:26.510Z,12.65
2023-02-19T15:31:58.340Z,11.27
2023-02-19T15:34:27.368Z,11.98
2023-02-19T15:37:00.616Z,10.48
2023-02-19T15:39:48.703Z,16.88
2023-02-19T15:42:18.911Z,10.27
2023-02-19T15:45:16.446Z,16.45
2023-02-19T15:48:02.733Z,9.50
2023-02-19T15:50:31.940Z,11.98
2023-02-19T15:53:01.511Z,15.38
2023-02-19T15:55:38.910Z,12.93
2023-02-19T15:58:29.955Z,11.65
2023-02-19T16:01:27.809Z,14.70
2023-02-19T16:03:55.346Z,15.30
2023-02-19T16:06:24.542Z,12.02
2023-02-19T16:09:05.597Z,14.90
2023-02-19T16:11:38.347Z,14.57
2023-02-19T16:14:23.514Z,17.23
2023-02-19T16:16:54.997Z,13.93
2023-02-19T16:19:30.606Z,17.02
2023-02-19T16:21:58.643Z,16.30
2023-02-19T16:24:35.281Z,15.20
2023-02-19T16:27:02.667Z,19.40
2023-02-19T16:29:31.552Z,14.45
2023-02-19T16:32:01.800Z,13.85
2023-02-19T16:34:47.553Z,20.58
2023-02-19T16:37:56.288Z,21.88
2023-02-19T16:40:34.780Z,26.38
2023-02-19T16:43:24.788Z,24.23
2023-02-19T16:45:51.219Z,20.90
2023-02-19T16:48:21.274Z,16.98
2023-02-19T16:50:47.736Z,19.10
2023-02-19T16:53:20.600Z,22.75
2023-02-19T16:55:47.340Z,20.80
2023-02-19T16:58:14.253Z,16.52
2023-02-19T17:00:40.782Z,16.10
2023-02-19T17:03:13.989Z,15.25
2023-02-19T17:05:41.150Z,14.57
2023-02-19T17:08:34.281Z,16.40
2023-02-19T17:11:06.981Z,21.48
2023-02-19T17:13:33.883Z,16.98
2023-02-19T17:16:00.379Z,18.90
2023-02-19T17:18:28.092Z,19.10
2023-02-19T17:21:00.264Z,14.73
2023-02-19T17:23:26.885Z,19.75
2023-02-19T17:25:53.794Z,13.85
2023-02-19T17:28:20.235Z,16.35
2023-02-19T17:30:47.299Z,17.65
2023-02-19T17:33:13.855Z,18.90
2023-02-19T17:35:42.516Z,12.05
2023-02-19T17:38:11.547Z,18.20
2023-02-19T17:40:38.308Z,17.45
2023-02-19T17:43:05.928Z,15.95
2023-02-19T17:45:33.373Z,16.05
2023-02-19T17:48:00.835Z,17.17
2023-02-19T17:50:31.240Z,13.60
2023-02-19T17:52:58.517Z,16.20
2023-02-19T17:55:26.776Z,16.70
2023-02-19T17:57:53.520Z,18.35
2023-02-19T18:00:23.602Z,19.15
2023-02-19T18:02:50.637Z,22.48
2023-02-19T18:05:17.826Z,19.13
2023-02-19T18:07:45.567Z,17.48
2023-02-19T18:10:13.051Z,15.93
2023-02-19T18:12:40.449Z,20.48
2023-02-19T18:15:09.280Z,19.67
2023-02-19T18:17:36.302Z,24.83
2023-02-19T18:20:04.981Z,18.33
2023-02-19T18:22:32.729Z,19.25
2023-02-19T18:24:59.459Z,18.48
2023-02-19T18:27:26.162Z,24.00
2023-02-19T18:29:55.955Z,21.23
2023-02-19T18:32:24.531Z,24.08
2023-02-19T18:34:54.288Z,23.45
2023-02-19T18:37:21.896Z,21.25
2023-02-19T18:39:48.489Z,21.42
2023-02-19T18:42:15.264Z,20.23
2023-02-19T18:44:43.669Z,17.63
2023-02-19T18:47:11.450Z,18.85
2023-02-19T18:49:38.619Z,23.88
2023-02-19T18:52:05.932Z,18.85
2023-02-19T18:54:32.824Z,20.23
2023-02-19T18:57:03.692Z,22.13
2023-02-19T18:59:30.902Z,17.25
2023-02-19T19:01:57.733Z,18.90
2023-02-19T19:04:24.158Z,22.02
2023-02-19T19:06:51.832Z,18.35
2023-02-19T19:09:18.321Z,18.25
2023-02-19T19:11:46.566Z,16.95
2023-02-19T19:14:13.473Z,16.20
2023-02-19T19:16:40.535Z,16.17
2023-02-19T19:19:07.364Z,13.90
2023-02-19T19:21:33.790Z,11.90
2023-02-19T19:24:00.640Z,15.10
2023-02-19T19:26:27.074Z,12.55
2023-02-19T19:28:53.627Z,11.60
2023-02-19T19:31:21.277Z,16.00
2023-02-19T19:33:48.938Z,16.65
2023-02-19T19:36:20.202Z,12.73
2023-02-19T19:38:47.137Z,11.45
2023-02-19T19:41:18.336Z,14.45
2023-02-19T19:43:46.076Z,15.30
2023-02-19T19:46:16.486Z,13.63
2023-02-19T19:48:43.022Z,12.15
2023-02-19T19:51:09.644Z,9.30
2023-02-19T19:53:36.645Z,8.48
2023-02-19T19:56:03.394Z,7.60
2023-02-19T19:58:29.868Z,8.35
2023-02-19T20:00:56.891Z,8.27
2023-02-19T20:03:23.345Z,13.85
2023-02-19T20:05:52.684Z,7.57
2023-02-19T20:08:19.355Z,7.60
2023-02-19T20:10:46.126Z,7.60
2023-02-19T20:13:16.980Z,6.30
2023-02-19T20:15:43.705Z,7.15
2023-02-19T20:18:10.219Z,6.97
2023-02-19T20:20:36.707Z,8.07
2023-02-19T20:23:03.101Z,6.35
2023-02-19T20:25:29.896Z,6.20
2023-02-19T20:27:56.519Z,6.60
2023-02-19T20:30:25.330Z,9.80
2023-02-19T20:32:53.370Z,7.88
2023-02-19T20:35:20.721Z,6.47
2023-02-19T20:37:47.978Z,8.32
2023-02-19T20:40:17.792Z,6.70
2023-02-19T20:42:44.518Z,8.52
2023-02-19T20:45:11.060Z,5.97
2023-02-19T20:47:40.301Z,9.25
2023-02-19T20:50:07.371Z,6.25
2023-02-19T20:52:34.261Z,7.22
2023-02-19T20:55:01.108Z,10.50
2023-02-19T20:57:27.610Z,8.10
2023-02-19T20:59:54.419Z,10.68
2023-02-19T21:02:27.615Z,11.48
2023-02-19T21:04:54.288Z,9.00
2023-02-19T21:07:20.784Z,10.27
2023-02-19T21:09:47.546Z,10.23
2023-02-19T21:12:13.930Z,12.60
2023-02-19T21:14:41.128Z,10.52
2023-02-19T21:17:07.663Z,11.10
2023-02-19T21:19:34.661Z,10.70
2023-02-19T21:22:01.543Z,11.90
2023-02-19T21:24:28.036Z,11.45
2023-02-19T21:26:54.597Z,10.60
2023-02-19T21:29:22.652Z,11.20
2023-02-19T21:31:52.151Z,11.60
2023-02-19T21:34:21.573Z,11.88
2023-02-19T21:36:48.532Z,15.63
2023-02-19T21:39:17.972Z,15.15
2023-02-19T21:41:44.546Z,10.38
2023-02-19T21:44:11.442Z,10.82
2023-02-19T21:46:37.952Z,13.32
2023-02-19T21:49:05.807Z,13.00
2023-02-19T21:51:41.991Z,15.35
2023-02-19T21:54:13.135Z,14.63
2023-02-19T21:56:39.541Z,16.60
2023-02-19T21:59:06.292Z,14.13
2023-02-19T22:01:35.104Z,17.92
2023-02-19T22:04:02.329Z,15.52
2023-02-19T22:06:30.763Z,13.90
2023-02-19T22:08:58.632Z,14.32
2023-02-19T22:11:27.405Z,15.50
2023-02-19T22:13:53.818Z,19.25
2023-02-19T22:16:21.077Z,13.27
2023-02-19T22:18:58.564Z,17.63
2023-02-19T22:21:27.869Z,16.50
2023-02-19T22:23:54.980Z,15.40
2023-02-19T22:26:25.877Z,17.38
2023-02-19T22:28:52.886Z,15.48
2023-02-19T22:31:23.024Z,17.63
2023-02-19T22:33:50.236Z,12.38
2023-02-19T22:36:25.481Z,14.27
2023-02-19T22:38:52.586Z,13.70
2023-02-19T22:41:20.269Z,16.90
2023-02-19T22:43:48.269Z,17.25
2023-02-19T22:46:23.755Z,11.98
2023-02-19T22:48:51.013Z,15.70
2023-02-19T22:51:20.457Z,14.50
2023-02-19T22:53:54.995Z,12.68
2023-02-19T22:56:23.854Z,12.15
2023-02-19T22:58:51.097Z,13.02
2023-02-19T23:01:18.492Z,10.82
2023-02-19T23:03:50.310Z,17.85
2023-02-19T23:06:21.060Z,11.07
2023-02-19T23:08:47.530Z,10.90
2023-02-19T23:11:21.731Z,10.82
2023-02-19T23:13:48.532Z,13.03
2023-02-19T23:16:15.505Z,12.40
2023-02-19T23:18:43.371Z,13.65
2023-02-19T23:21:10.208Z,10.48
2023-02-19T23:23:36.785Z,15.45
2023-02-19T23:26:04.841Z,13.50
2023-02-19T23:28:31.470Z,12.73
2023-02-19T23:30:58.598Z,11.90
2023-02-19T23:33:25.241Z,15.30
2023-02-19T23:35:52.049Z,11.40
2023-02-19T23:38:18.778Z,11.85
2023-02-19T23:40:45.436Z,11.35
2023-02-19T23:43:13.248Z,13.60
2023-02-19T23:45:39.709Z,14.45
2023-02-19T23:48:06.272Z,19.98
2023-02-19T23:50:32.750Z,14.98
2023-02-19T23:52:59.756Z,19.02
2023-02-19T23:55:26.693Z,16.60
2023-02-19T23:57:53.952Z,17.33
